Terminal Aerodrome Forecast
Issued by NWS

Home | Current Version | Previous Version | Text Only | Print | Product List | Glossary On
Versions: 1 2 3 4 5 6 7 8 9 10 11 12 13 14 15 16
000
FTPA31 PHFO 270529
TAFHMK
TAF
PHMK 270529Z 2706/2806 01005KT P6SM FEW025
     FM272100 02008G16KT P6SM FEW030 SCT060
     FM280300 VRB05KT P6SM SCT025 SCT060=

USA.gov is the U.S. government's official web portal to all federal, state and local government web resources and services.